| time (UTC) | temp F | wind direction | speed MPH | gust MPH | rain 1hr in | rain 24hr in | rain mn in | humidity % | barometer mb |
| 20260508140142 | 55 | 325 | 2.0 | 7.0 | 0.00 | 0.00 | 0.00 | 55 | 1020.5 |
| 20260508134535 | 55 | 4 | 1.0 | 6.0 | 0.00 | 0.00 | 0.00 | 55 | 1020.4 |
| 20260508133035 | 56 | 252 | 2.0 | 8.0 | 0.00 | 0.00 | 0.00 | 56 | 1020.2 |
| 20260508130036 | 56 | 209 | 4.0 | 10.0 | 0.00 | 0.00 | 0.00 | 57 | 1020.0 |
| 20260508124532 | 56 | 193 | 3.0 | 10.0 | 0.00 | 0.00 | 0.00 | 59 | 1019.9 |
| 20260508123035 | 55 | 205 | 3.0 | 12.0 | 0.00 | 0.00 | 0.00 | 62 | 1019.9 |
| 20260508121609 | 53 | 196 | 1.0 | 6.0 | 0.00 | 0.00 | 0.00 | 66 | 1019.8 |
| 20260508120142 | 48 | 171 | 1.0 | 4.0 | 0.00 | 0.00 | 0.00 | 70 | 1019.7 |
| 20260508114535 | 47 | 115 | 0.0 | 3.0 | 0.00 | 0.00 | 0.00 | 70 | 1019.6 |
| 20260508113149 | 46 | 107 | 0.0 | 3.0 | 0.00 | 0.00 | 0.00 | 69 | 1019.4 |
| 20260508111648 | 46 | 138 | 1.0 | 4.0 | 0.00 | 0.00 | 0.00 | 69 | 1019.3 |
| 20260508110033 | 46 | 156 | 1.0 | 4.0 | 0.00 | 0.00 | 0.00 | 67 | 1019.2 |
| 20260508104529 | 46 | 120 | 1.0 | 3.0 | 0.00 | 0.00 | 0.00 | 66 | 1019.2 |
| 20260508103120 | 46 | 122 | 1.0 | 4.0 | 0.00 | 0.00 | 0.00 | 65 | 1019.3 |
| 20260508103111 | 45 | 124 | 1.0 | 4.0 | 0.00 | 0.00 | 0.00 | 64 | 1019.3 |
| 20260508100154 | 45 | 132 | 0.0 | 2.0 | 0.00 | 0.00 | 0.00 | 62 | 1019.3 |
| 20260508094532 | 46 | 125 | 0.0 | 3.0 | 0.00 | 0.00 | 0.00 | 61 | 1019.3 |
| 20260508093033 | 46 | 127 | 1.0 | 4.0 | 0.00 | 0.00 | 0.00 | 60 | 1019.2 |
| 20260508091535 | 47 | 116 | 1.0 | 5.0 | 0.00 | 0.00 | 0.00 | 59 | 1019.3 |
| 20260508090108 | 47 | 115 | 0.0 | 4.0 | 0.00 | 0.00 | 0.00 | 59 | 1019.2 |
| 20260508083035 | 48 | 114 | 1.0 | 4.0 | 0.00 | 0.00 | 0.00 | 56 | 1019.3 |
| 20260508081531 | 52 | 128 | 0.0 | 4.0 | 0.00 | 0.00 | 0.00 | 52 | 1019.3 |
| 20260508073034 | 50 | 172 | 0.0 | 4.0 | 0.00 | 0.00 | 0.00 | 53 | 1019.4 |
| 20260508071608 | 51 | 143 | 0.0 | 4.0 | 0.00 | 0.00 | 0.00 | 51 | 1019.4 |
| 20260508064535 | 55 | 192 | 1.0 | 6.0 | 0.00 | 0.00 | 0.00 | 47 | 1019.4 |
| 20260508063144 | 54 | 202 | 1.0 | 5.0 | 0.00 | 0.00 | 0.00 | 49 | 1019.5 |
| 20260508061543 | 53 | 189 | 0.0 | 2.0 | 0.00 | 0.00 | 0.00 | 47 | 1019.5 |
| 20260508060034 | 53 | 125 | 0.0 | 1.0 | 0.00 | 0.00 | 0.00 | 46 | 1019.6 |
| 20260508053032 | 53 | 189 | 0.0 | 1.0 | 0.00 | 0.00 | 0.00 | 43 | 1019.6 |
| 20260508051534 | 54 | 199 | 0.0 | 2.0 | 0.00 | 0.00 | 0.00 | 41 | 1019.6 |
| 20260508050031 | 55 | 180 | 0.0 | 2.0 | 0.00 | 0.00 | 0.00 | 40 | 1019.6 |
| 20260508044537 | 55 | 148 | 0.0 | 4.0 | 0.00 | 0.00 | 0.00 | 39 | 1019.5 |
| 20260508043035 | 57 | 144 | 0.0 | 3.0 | 0.00 | 0.00 | 0.00 | 38 | 1019.4 |
| 20260508041532 | 58 | 170 | 0.0 | 4.0 | 0.00 | 0.00 | 0.00 | 36 | 1019.3 |
| 20260508040031 | 60 | 195 | 1.0 | 6.0 | 0.00 | 0.00 | 0.00 | 34 | 1019.1 |
| 20260508033111 | 62 | 207 | 1.0 | 8.0 | 0.00 | 0.00 | 0.00 | 30 | 1018.7 |
| 20260508031644 | 0 | 0 | 0.0 | 0.0 | 0.00 | 0.00 | 0.00 | 100 | |
| 20260508030037 | 63 | 231 | 3.0 | 8.0 | 0.00 | 0.00 | 0.00 | 27 | 1018.5 |
| 20260508024534 | 65 | 227 | 1.0 | 8.0 | 0.00 | 0.00 | 0.00 | 26 | 1018.5 |
| 20260508023035 | 67 | 270 | 2.0 | 8.0 | 0.00 | 0.00 | 0.00 | 25 | 1018.4 |
| 20260508021530 | 67 | 258 | 2.0 | 8.0 | 0.00 | 0.00 | 0.00 | 25 | 1018.2 |
| 20260508020034 | 68 | 248 | 2.0 | 9.0 | 0.00 | 0.00 | 0.00 | 25 | 1018.2 |
| 20260508014536 | 69 | 256 | 3.0 | 8.0 | 0.00 | 0.00 | 0.00 | 25 | 1018.1 |
| 20260508013150 | 70 | 264 | 3.0 | 9.0 | 0.00 | 0.00 | 0.00 | 24 | 1018.2 |
| 20260508011533 | 71 | 250 | 4.0 | 14.0 | 0.00 | 0.00 | 0.00 | 24 | 1018.3 |
| 20260508010037 | 72 | 238 | 3.0 | 11.0 | 0.00 | 0.00 | 0.00 | 24 | 1018.3 |
| 20260508004638 | 71 | 262 | 3.0 | 11.0 | 0.00 | 0.00 | 0.00 | 23 | 1018.2 |
| 20260508003108 | 72 | 249 | 4.0 | 12.0 | 0.00 | 0.00 | 0.00 | 22 | 1018.2 |
| 20260508001534 | 72 | 244 | 5.0 | 13.0 | 0.00 | 0.00 | 0.00 | 22 | 1018.1 |
| 20260508000038 | 72 | 232 | 5.0 | 15.0 | 0.00 | 0.00 | 0.00 | 22 | 1018.1 |
| 20260507234542 | 72 | 229 | 5.0 | 14.0 | 0.00 | 0.00 | 0.00 | 22 | 1018.1 |
| 20260507234536 | 72 | 237 | 5.0 | 13.0 | 0.00 | 0.00 | 0.00 | 22 | 1018.2 |
| 20260507231534 | 72 | 237 | 6.0 | 15.0 | 0.00 | 0.00 | 0.00 | 22 | 1018.4 |
| 20260507230031 | 72 | 231 | 5.0 | 15.0 | 0.00 | 0.00 | 0.00 | 22 | 1018.5 |
| 20260507223035 | 71 | 236 | 6.0 | 14.0 | 0.00 | 0.00 | 0.00 | 23 | 1018.6 |
| 20260507221535 | 71 | 237 | 6.0 | 15.0 | 0.00 | 0.00 | 0.00 | 23 | 1018.8 |
| 20260507214534 | 70 | 230 | 6.0 | 14.0 | 0.00 | 0.00 | 0.00 | 24 | 1019.1 |
| 20260507210110 | 70 | 220 | 6.0 | 14.0 | 0.00 | 0.00 | 0.00 | 25 | 1019.2 |
| 20260507203032 | 70 | 228 | 5.0 | 13.0 | 0.00 | 0.00 | 0.00 | 26 | 1019.6 |
| 20260507201533 | 70 | 217 | 5.0 | 12.0 | 0.00 | 0.00 | 0.00 | 27 | 1019.7 |
| 20260507200038 | 70 | 214 | 6.0 | 14.0 | 0.00 | 0.00 | 0.00 | 27 | 1019.9 |
| 20260507194534 | 70 | 204 | 6.0 | 13.0 | 0.00 | 0.00 | 0.00 | 28 | 1020.0 |
| 20260507193110 | 69 | 199 | 6.0 | 14.0 | 0.00 | 0.00 | 0.00 | 28 | 1020.1 |
| 20260507191530 | 69 | 198 | 6.0 | 17.0 | 0.00 | 0.00 | 0.00 | 28 | 1020.2 |
| 20260507181536 | 67 | 189 | 4.0 | 12.0 | 0.00 | 0.00 | 0.00 | 34 | 1020.6 |
| 20260507180110 | 66 | 201 | 5.0 | 12.0 | 0.00 | 0.00 | 0.00 | 35 | 1020.7 |
| 20260507174643 | 65 | 200 | 5.0 | 12.0 | 0.00 | 0.00 | 0.00 | 36 | 1021.0 |
| 20260507173034 | 64 | 203 | 5.0 | 11.0 | 0.00 | 0.00 | 0.00 | 37 | 1021.0 |
| 20260507171540 | 62 | 220 | 4.0 | 11.0 | 0.00 | 0.00 | 0.00 | 44 | 1021.1 |
| 20260507164610 | 60 | 218 | 4.0 | 11.0 | 0.00 | 0.00 | 0.00 | 47 | 1021.2 |
| 20260507163037 | 60 | 231 | 6.0 | 14.0 | 0.00 | 0.00 | 0.00 | 50 | 1021.3 |
| 20260507161533 | 59 | 236 | 4.0 | 11.0 | 0.00 | 0.00 | 0.00 | 53 | 1021.5 |
| 20260507160036 | 58 | 238 | 3.0 | 12.0 | 0.00 | 0.00 | 0.00 | 55 | 1021.5 |
| 20260507154534 | 58 | 223 | 3.0 | 11.0 | 0.00 | 0.00 | 0.00 | 56 | 1021.5 |
| 20260507153111 | 57 | 233 | 4.0 | 14.0 | 0.00 | 0.00 | 0.00 | 58 | 1021.6 |
| 20260507151536 | 56 | 234 | 4.0 | 13.0 | 0.00 | 0.00 | 0.00 | 60 | 1021.7 |
| 20260507150047 | 55 | 229 | 3.0 | 10.0 | 0.00 | 0.00 | 0.00 | 63 | 1021.8 |
| 20260507144535 | 55 | 189 | 1.0 | 7.0 | 0.00 | 0.00 | 0.00 | 64 | 1021.8 |
| 20260507143036 | 55 | 200 | 2.0 | 7.0 | 0.00 | 0.00 | 0.00 | 65 | 1021.7 |
| 20260507141531 | 54 | 210 | 3.0 | 8.0 | 0.00 | 0.00 | 0.00 | 68 | 1021.6 |